createdAt,value
2023-01-01T00:00:27.236Z,23.13
2023-01-01T00:02:56.117Z,20.75
2023-01-01T00:05:22.903Z,17.33
2023-01-01T00:07:49.613Z,18.35
2023-01-01T00:10:38.952Z,16.88
2023-01-01T00:13:08.268Z,15.60
2023-01-01T00:15:39.663Z,15.35
2023-01-01T00:18:06.330Z,12.07
2023-01-01T00:20:35.702Z,10.65
2023-01-01T00:23:03.044Z,10.18
2023-01-01T00:25:30.507Z,13.13
2023-01-01T00:27:59.388Z,11.32
2023-01-01T00:30:28.258Z,9.75
2023-01-01T00:32:57.523Z,9.93
2023-01-01T00:35:29.358Z,9.43
2023-01-01T00:37:56.231Z,9.73
2023-01-01T00:40:25.442Z,9.35
2023-01-01T00:42:52.245Z,11.10
2023-01-01T00:45:23.381Z,14.77
2023-01-01T00:47:56.228Z,12.90
2023-01-01T00:50:23.327Z,14.57
2023-01-01T00:52:52.498Z,11.30
2023-01-01T00:55:21.755Z,13.15
2023-01-01T00:57:50.918Z,12.35
2023-01-01T01:00:17.949Z,13.43
2023-01-01T01:02:47.471Z,12.52
2023-01-01T01:05:16.936Z,11.27
2023-01-01T01:07:43.791Z,14.82
2023-01-01T01:10:12.206Z,16.25
2023-01-01T01:12:39.187Z,17.67
2023-01-01T01:15:09.759Z,16.42
2023-01-01T01:17:36.937Z,13.38
2023-01-01T01:20:06.409Z,14.75
2023-01-01T01:22:34.774Z,13.85
2023-01-01T01:25:01.836Z,12.27
2023-01-01T01:27:33.292Z,18.63
2023-01-01T01:30:04.778Z,12.35
2023-01-01T01:32:33.657Z,19.38
2023-01-01T01:35:02.532Z,18.20
2023-01-01T01:37:29.293Z,20.65
2023-01-01T01:39:58.415Z,23.85
2023-01-01T01:42:25.286Z,24.45
2023-01-01T01:45:09.094Z,25.63
2023-01-01T01:47:37.484Z,25.27
2023-01-01T01:50:13.555Z,27.05
2023-01-01T01:53:08.621Z,31.50
2023-01-01T01:55:41.160Z,27.83
2023-01-01T01:58:11.412Z,23.05
2023-01-01T02:00:38.223Z,29.55
2023-01-01T02:03:36.675Z,28.48
2023-01-01T02:06:04.471Z,26.05
2023-01-01T02:08:31.276Z,23.08
2023-01-01T02:10:58.004Z,24.73
2023-01-01T02:13:25.923Z,25.90
2023-01-01T02:16:09.972Z,25.77
2023-01-01T02:18:57.609Z,27.13
2023-01-01T02:21:37.528Z,32.85
2023-01-01T02:24:27.851Z,18.52
2023-01-01T02:26:58.439Z,31.08
2023-01-01T02:29:52.814Z,24.33
2023-01-01T02:32:40.704Z,24.67
2023-01-01T02:35:32.482Z,21.63
2023-01-01T02:38:10.957Z,25.98
2023-01-01T02:40:48.783Z,27.02
2023-01-01T02:43:20.157Z,39.75
2023-01-01T02:45:50.063Z,49.03
2023-01-01T02:48:40.971Z,59.47
2023-01-01T02:51:46.274Z,55.92
2023-01-01T02:54:18.701Z,49.58
2023-01-01T02:56:59.144Z,48.10
2023-01-01T02:59:53.096Z,68.57
2023-01-01T03:02:48.544Z,47.85
2023-01-01T03:05:34.567Z,50.60
2023-01-01T03:08:20.134Z,58.83
2023-01-01T03:10:46.834Z,44.50
2023-01-01T03:13:16.567Z,71.57
2023-01-01T03:15:47.492Z,57.38
2023-01-01T03:18:49.452Z,65.80
2023-01-01T03:23:54.657Z,81.75
2023-01-01T03:26:24.876Z,79.40
2023-01-01T03:28:59.854Z,64.00
2023-01-01T03:31:29.639Z,69.22
2023-01-01T03:34:06.385Z,51.92
2023-01-01T03:36:40.471Z,66.43
2023-01-01T03:39:48.186Z,40.65
2023-01-01T03:42:43.097Z,56.30
2023-01-01T03:45:32.927Z,51.58
2023-01-01T03:48:00.746Z,55.35
2023-01-01T03:50:38.841Z,54.88
2023-01-01T03:53:13.517Z,47.88
2023-01-01T03:55:50.318Z,52.00
2023-01-01T03:58:35.605Z,54.90
2023-01-01T04:01:14.486Z,48.72
2023-01-01T04:03:46.540Z,38.65
2023-01-01T04:08:45.144Z,52.20
2023-01-01T04:11:39.812Z,43.25
2023-01-01T04:14:06.597Z,51.28
2023-01-01T04:16:33.600Z,58.03
2023-01-01T04:19:00.500Z,39.70
2023-01-01T04:21:29.747Z,64.93
2023-01-01T04:23:58.938Z,56.63
2023-01-01T04:26:25.630Z,68.10
2023-01-01T04:28:52.350Z,69.28
2023-01-01T04:31:19.070Z,60.28
2023-01-01T04:33:45.717Z,61.03
2023-01-01T04:36:12.465Z,63.13
2023-01-01T04:38:43.795Z,54.03
2023-01-01T04:41:15.082Z,57.60
2023-01-01T04:43:41.830Z,68.90
2023-01-01T04:46:09.310Z,69.82
2023-01-01T04:48:36.426Z,93.20
2023-01-01T04:51:05.626Z,70.78
2023-01-01T04:53:34.282Z,103.88
2023-01-01T04:56:08.484Z,91.18
2023-01-01T04:58:36.763Z,81.18
2023-01-01T05:01:07.094Z,62.70
2023-01-01T05:03:34.158Z,75.53
2023-01-01T05:06:07.225Z,104.07
2023-01-01T05:08:38.079Z,91.88
2023-01-01T05:11:26.903Z,80.82
2023-01-01T05:13:59.134Z,87.32
2023-01-01T05:16:39.510Z,102.57
2023-01-01T05:19:10.589Z,89.70
2023-01-01T05:21:40.880Z,83.03
2023-01-01T05:24:10.895Z,78.00
2023-01-01T05:26:42.408Z,68.55
2023-01-01T05:29:16.155Z,59.08
2023-01-01T05:31:46.713Z,105.30
2023-01-01T05:34:16.236Z,116.35
2023-01-01T05:36:43.042Z,85.38
2023-01-01T05:39:12.452Z,106.63
2023-01-01T05:41:40.461Z,96.40
2023-01-01T05:44:08.917Z,87.57
2023-01-01T05:46:38.214Z,90.93
2023-01-01T05:49:05.004Z,57.35
2023-01-01T05:54:02.189Z,39.92
2023-01-01T05:56:28.963Z,39.30
2023-01-01T05:58:56.528Z,34.80
2023-01-01T06:01:30.548Z,34.80
2023-01-01T06:03:58.708Z,45.83
2023-01-01T06:06:33.765Z,30.98
2023-01-01T06:09:05.070Z,39.90
2023-01-01T06:11:37.112Z,40.15
2023-01-01T06:16:33.617Z,39.58
2023-01-01T06:19:02.679Z,44.47
2023-01-01T06:21:32.231Z,40.08
2023-01-01T06:24:00.853Z,32.05
2023-01-01T06:26:32.304Z,41.67
2023-01-01T06:29:02.820Z,40.35
2023-01-01T06:31:35.401Z,37.78
2023-01-01T06:34:05.192Z,36.10
2023-01-01T06:36:31.993Z,32.80
2023-01-01T06:39:00.122Z,47.58
2023-01-01T06:41:28.385Z,41.65
2023-01-01T06:43:56.400Z,38.35
2023-01-01T06:46:26.093Z,43.75
2023-01-01T06:48:58.618Z,40.53
2023-01-01T06:51:30.051Z,43.55
2023-01-01T06:54:00.008Z,44.95
2023-01-01T06:56:27.201Z,46.58
2023-01-01T06:58:54.059Z,51.08
2023-01-01T07:01:26.059Z,41.95
2023-01-01T07:06:28.452Z,29.48
2023-01-01T07:08:55.399Z,25.75
2023-01-01T07:11:22.891Z,30.55
2023-01-01T07:13:49.592Z,33.00
2023-01-01T07:16:16.479Z,22.13
2023-01-01T07:18:43.288Z,27.75
2023-01-01T07:21:28.764Z,30.08
2023-01-01T07:24:00.315Z,26.92
2023-01-01T07:26:28.567Z,29.05
2023-01-01T07:28:59.508Z,24.10
2023-01-01T07:31:33.523Z,29.10
2023-01-01T07:34:00.295Z,33.00
2023-01-01T07:36:26.993Z,26.50
2023-01-01T07:38:53.719Z,31.90
2023-01-01T07:41:20.549Z,27.83
2023-01-01T07:43:47.255Z,32.03
2023-01-01T07:46:16.507Z,27.60
2023-01-01T07:48:48.005Z,28.30
2023-01-01T07:51:14.666Z,23.00
2023-01-01T07:53:41.353Z,22.67
2023-01-01T07:56:10.856Z,20.25
2023-01-01T07:58:41.293Z,24.02
2023-01-01T08:01:11.840Z,19.75
2023-01-01T08:03:41.206Z,22.65
2023-01-01T08:06:12.713Z,17.95
2023-01-01T08:08:39.921Z,18.58
2023-01-01T08:11:06.911Z,21.02
2023-01-01T08:13:33.675Z,18.38
2023-01-01T08:16:00.552Z,19.67
2023-01-01T08:18:27.350Z,17.90
2023-01-01T08:20:54.303Z,15.65
2023-01-01T08:23:21.188Z,14.13
2023-01-01T08:25:47.929Z,14.30
2023-01-01T08:28:14.783Z,19.30
2023-01-01T08:30:41.737Z,14.57
2023-01-01T08:33:08.489Z,18.10
2023-01-01T08:35:39.637Z,19.02
2023-01-01T08:38:06.357Z,23.13
2023-01-01T08:40:38.028Z,22.58
2023-01-01T08:43:04.795Z,19.58
2023-01-01T08:45:34.021Z,20.58
2023-01-01T08:48:00.765Z,18.63
2023-01-01T08:50:27.594Z,14.55
2023-01-01T08:52:57.530Z,16.10
2023-01-01T08:55:26.609Z,14.85
2023-01-01T08:57:53.363Z,16.48
2023-01-01T09:00:20.276Z,16.33
2023-01-01T09:02:47.126Z,15.93
2023-01-01T09:05:16.032Z,17.75
2023-01-01T09:07:45.059Z,12.35
2023-01-01T09:10:13.942Z,16.77
2023-01-01T09:12:40.651Z,18.38
2023-01-01T09:15:11.749Z,14.60
2023-01-01T09:17:38.461Z,15.93
2023-01-01T09:20:05.888Z,18.63
2023-01-01T09:22:34.128Z,17.35
2023-01-01T09:25:03.400Z,15.88
2023-01-01T09:27:30.119Z,13.98
2023-01-01T09:29:56.929Z,13.65
2023-01-01T09:32:24.061Z,16.27
2023-01-01T09:34:52.671Z,14.40
2023-01-01T09:37:22.082Z,12.25
2023-01-01T09:39:53.425Z,11.95
2023-01-01T09:42:39.936Z,10.55
2023-01-01T09:45:31.552Z,12.95
2023-01-01T09:48:03.704Z,15.20
2023-01-01T09:53:30.785Z,12.98
2023-01-01T09:56:00.257Z,12.48
2023-01-01T09:58:30.261Z,12.48
2023-01-01T10:01:21.419Z,9.07
2023-01-01T10:04:08.022Z,13.02
2023-01-01T10:06:43.982Z,13.30
2023-01-01T10:09:25.961Z,13.30
2023-01-01T10:12:18.958Z,12.38
2023-01-01T10:14:57.882Z,10.20
2023-01-01T10:17:50.698Z,13.55
2023-01-01T10:20:36.234Z,10.63
2023-01-01T10:23:22.434Z,11.13
2023-01-01T10:25:51.290Z,10.50
2023-01-01T10:28:23.819Z,8.95
2023-01-01T10:30:53.341Z,10.93
2023-01-01T10:33:22.657Z,11.02
2023-01-01T10:35:52.235Z,9.82
2023-01-01T10:38:26.569Z,9.35
2023-01-01T10:41:00.378Z,7.68
2023-01-01T10:43:31.995Z,9.63
2023-01-01T10:46:05.968Z,8.88
2023-01-01T10:48:33.761Z,9.90
2023-01-01T10:51:00.423Z,10.80
2023-01-01T10:53:31.724Z,9.50
2023-01-01T10:56:14.530Z,8.43
2023-01-01T10:58:43.074Z,10.35
2023-01-01T11:01:22.818Z,9.32
2023-01-01T11:04:01.434Z,8.07
2023-01-01T11:06:31.992Z,10.00
2023-01-01T11:09:03.123Z,9.75
2023-01-01T11:11:43.744Z,9.38
2023-01-01T11:14:27.749Z,8.20
2023-01-01T11:17:00.515Z,8.25
2023-01-01T11:19:50.377Z,8.13
2023-01-01T11:22:41.846Z,6.28
2023-01-01T11:25:20.350Z,7.72
2023-01-01T11:27:47.945Z,7.18
2023-01-01T11:30:22.692Z,7.45
2023-01-01T11:32:55.825Z,6.90
2023-01-01T11:35:27.552Z,5.45
2023-01-01T11:37:55.929Z,6.70
2023-01-01T11:40:44.861Z,5.05
2023-01-01T11:43:18.854Z,7.20
2023-01-01T11:45:45.635Z,6.20
2023-01-01T11:48:26.156Z,5.55
2023-01-01T11:50:58.114Z,4.95
2023-01-01T11:56:15.370Z,5.15
2023-01-01T11:59:03.917Z,6.57
2023-01-01T12:01:49.183Z,5.60
2023-01-01T12:04:33.152Z,6.78
2023-01-01T12:07:14.138Z,6.43
2023-01-01T12:10:02.597Z,6.88
2023-01-01T12:12:50.827Z,7.50
2023-01-01T12:15:41.077Z,7.30
2023-01-01T12:18:39.774Z,5.38
2023-01-01T12:21:23.720Z,4.95
2023-01-01T12:23:50.513Z,5.47
2023-01-01T12:26:42.662Z,5.47
2023-01-01T12:29:39.559Z,5.00
2023-01-01T12:32:11.605Z,5.03
2023-01-01T12:35:07.465Z,5.18
2023-01-01T12:37:53.009Z,4.55
2023-01-01T12:40:38.822Z,4.28
2023-01-01T12:43:29.175Z,4.20
2023-01-01T12:46:28.566Z,5.13
2023-01-01T12:49:04.519Z,4.43
2023-01-01T12:51:46.514Z,3.97
2023-01-01T12:54:44.463Z,4.88
2023-01-01T12:57:26.147Z,4.68
2023-01-01T12:59:54.917Z,5.05
2023-01-01T13:02:32.976Z,5.20
2023-01-01T13:05:18.631Z,4.53
2023-01-01T13:07:52.858Z,4.68
2023-01-01T13:10:39.291Z,4.07
2023-01-01T13:13:10.449Z,3.60
2023-01-01T13:15:45.271Z,2.80
2023-01-01T13:18:16.942Z,3.65
2023-01-01T13:20:57.819Z,3.30
2023-01-01T13:23:34.698Z,3.60
2023-01-01T13:26:22.853Z,4.00
2023-01-01T13:29:12.663Z,4.22
2023-01-01T13:31:39.722Z,3.97
2023-01-01T13:34:31.599Z,3.40
2023-01-01T13:37:10.427Z,3.45
2023-01-01T13:39:58.435Z,3.55
2023-01-01T13:42:52.134Z,4.00
2023-01-01T13:46:09.486Z,3.60
2023-01-01T13:48:45.421Z,4.15
2023-01-01T13:52:04.189Z,3.53
2023-01-01T13:54:24.531Z,3.30
2023-01-01T13:57:01.525Z,3.05
2023-01-01T13:59:47.843Z,3.50
2023-01-01T14:02:14.743Z,2.78
2023-01-01T14:04:56.402Z,3.42
2023-01-01T14:07:54.692Z,3.33
2023-01-01T14:10:36.414Z,3.30
2023-01-01T14:13:06.251Z,3.15
2023-01-01T14:15:48.585Z,3.42
2023-01-01T14:18:17.757Z,3.75
2023-01-01T14:20:50.301Z,4.15
2023-01-01T14:23:25.224Z,3.45
2023-01-01T14:25:52.166Z,3.45
2023-01-01T14:28:33.913Z,3.60
2023-01-01T14:31:11.977Z,3.90
2023-01-01T14:33:39.624Z,3.30
2023-01-01T14:36:23.229Z,3.00
2023-01-01T14:38:54.847Z,3.75
2023-01-01T14:41:31.240Z,5.82
2023-01-01T14:44:22.768Z,6.32
2023-01-01T14:46:52.808Z,6.55
2023-01-01T14:49:33.335Z,5.78
2023-01-01T14:52:08.524Z,5.40
2023-01-01T14:54:41.364Z,4.70
2023-01-01T14:57:39.771Z,4.55
2023-01-01T15:00:26.229Z,3.95
2023-01-01T15:02:57.783Z,4.10
2023-01-01T15:05:36.062Z,13.13
2023-01-01T15:08:06.039Z,11.00
2023-01-01T15:10:40.524Z,9.45
2023-01-01T15:13:07.914Z,8.13
2023-01-01T15:15:43.596Z,5.95
2023-01-01T15:18:42.495Z,5.82
2023-01-01T15:21:30.548Z,5.43
2023-01-01T15:23:59.590Z,5.22
2023-01-01T15:26:43.705Z,4.75
2023-01-01T15:29:15.821Z,3.92
2023-01-01T15:31:48.807Z,4.18
2023-01-01T15:34:27.721Z,5.97
2023-01-01T15:37:09.471Z,6.60
2023-01-01T15:39:51.345Z,6.10
2023-01-01T15:42:38.469Z,5.53
2023-01-01T15:45:31.006Z,5.65
2023-01-01T15:48:09.896Z,7.60
2023-01-01T15:50:44.056Z,8.50
2023-01-01T15:53:22.120Z,6.63
2023-01-01T15:56:01.289Z,7.22
2023-01-01T15:59:03.753Z,5.00
2023-01-01T16:01:36.373Z,6.90
2023-01-01T16:04:28.732Z,8.03
2023-01-01T16:06:57.901Z,7.25
2023-01-01T16:09:25.018Z,6.10
2023-01-01T16:11:55.925Z,8.32
2023-01-01T16:14:28.119Z,7.55
2023-01-01T16:17:00.505Z,8.68
2023-01-01T16:19:33.027Z,8.50
2023-01-01T16:22:04.519Z,6.35
2023-01-01T16:24:32.235Z,5.05
2023-01-01T16:27:01.155Z,4.88
2023-01-01T16:29:31.049Z,4.55
2023-01-01T16:31:59.977Z,5.28
2023-01-01T16:34:26.726Z,5.10
2023-01-01T16:36:55.623Z,4.93
2023-01-01T16:39:24.627Z,4.65
2023-01-01T16:41:53.731Z,4.05
2023-01-01T16:44:21.365Z,4.80
2023-01-01T16:46:48.166Z,4.05
2023-01-01T16:49:17.152Z,4.13
2023-01-01T16:51:44.505Z,4.55
2023-01-01T16:54:14.362Z,5.93
2023-01-01T16:56:41.124Z,6.47
2023-01-01T16:59:12.319Z,6.13
2023-01-01T17:01:41.356Z,7.07
2023-01-01T17:04:08.329Z,6.45
2023-01-01T17:06:37.588Z,5.72
2023-01-01T17:09:04.583Z,5.10
2023-01-01T17:11:33.999Z,7.07
2023-01-01T17:14:02.357Z,6.97
2023-01-01T17:16:36.272Z,7.03
2023-01-01T17:19:20.896Z,8.00
2023-01-01T17:21:48.410Z,14.25
2023-01-01T17:24:16.902Z,13.82
2023-01-01T17:26:43.756Z,10.48
2023-01-01T17:29:11.901Z,11.65
2023-01-01T17:31:38.740Z,13.38
2023-01-01T17:34:05.541Z,12.45
2023-01-01T17:36:32.457Z,13.70
2023-01-01T17:39:01.549Z,13.00
2023-01-01T17:41:33.262Z,14.88
2023-01-01T17:44:02.464Z,8.68
2023-01-01T17:46:33.186Z,10.27
2023-01-01T17:49:01.003Z,10.25
2023-01-01T17:51:31.008Z,12.57
2023-01-01T17:53:58.120Z,6.38
2023-01-01T17:56:25.258Z,7.45
2023-01-01T17:58:53.685Z,6.20
2023-01-01T18:01:23.946Z,4.65
2023-01-01T18:03:53.282Z,5.60
2023-01-01T18:06:25.554Z,4.82
2023-01-01T18:09:01.700Z,4.40
2023-01-01T18:11:29.882Z,4.20
2023-01-01T18:14:01.939Z,4.22
2023-01-01T18:19:01.120Z,4.35
2023-01-01T18:21:30.701Z,4.43
2023-01-01T18:24:00.524Z,4.25
2023-01-01T18:26:30.571Z,4.63
2023-01-01T18:29:00.024Z,5.82
2023-01-01T18:31:28.794Z,6.55
2023-01-01T18:33:57.809Z,6.28
2023-01-01T18:36:30.323Z,6.05
2023-01-01T18:39:03.010Z,7.13
2023-01-01T18:41:48.363Z,7.30
2023-01-01T18:44:15.053Z,6.32
2023-01-01T18:46:45.124Z,6.57
2023-01-01T18:49:14.127Z,5.07
2023-01-01T18:51:43.310Z,6.43
2023-01-01T18:54:16.667Z,5.95
2023-01-01T18:56:44.036Z,6.40
2023-01-01T18:59:26.602Z,8.10
2023-01-01T19:01:55.831Z,8.55
2023-01-01T19:04:25.124Z,15.68
2023-01-01T19:06:56.279Z,12.80
2023-01-01T19:09:28.621Z,15.40
2023-01-01T19:12:05.075Z,10.13
2023-01-01T19:14:34.842Z,13.18
2023-01-01T19:17:10.416Z,10.93
2023-01-01T19:19:40.627Z,6.10
2023-01-01T19:22:31.243Z,5.40
2023-01-01T19:24:58.118Z,4.90
2023-01-01T19:27:28.061Z,4.53
2023-01-01T19:29:57.665Z,4.82
2023-01-01T19:32:24.565Z,5.10
2023-01-01T19:34:51.347Z,5.03
2023-01-01T19:37:18.104Z,5.10
2023-01-01T19:39:44.898Z,5.70
2023-01-01T19:42:13.812Z,5.72
2023-01-01T19:44:45.277Z,4.70
2023-01-01T19:47:12.072Z,9.82
2023-01-01T19:49:38.753Z,16.55
2023-01-01T19:52:06.213Z,9.27
2023-01-01T19:54:35.277Z,11.15
2023-01-01T19:57:02.039Z,11.00
2023-01-01T19:59:33.036Z,6.88
2023-01-01T20:02:34.963Z,5.18
2023-01-01T20:04:47.322Z,6.25
2023-01-01T20:07:14.627Z,5.28
2023-01-01T20:09:43.749Z,6.97
2023-01-01T20:12:13.436Z,7.38
2023-01-01T20:14:40.149Z,7.68
2023-01-01T20:17:06.968Z,5.32
2023-01-01T20:19:35.185Z,5.63
2023-01-01T20:22:11.182Z,4.90
2023-01-01T20:24:46.561Z,5.53
2023-01-01T20:27:27.545Z,4.82
2023-01-01T20:29:57.055Z,4.75
2023-01-01T20:32:27.693Z,4.38
2023-01-01T20:34:54.787Z,3.83
2023-01-01T20:37:36.871Z,3.80
2023-01-01T20:40:13.585Z,3.75
2023-01-01T20:42:43.512Z,3.47
2023-01-01T20:45:10.596Z,3.15
2023-01-01T20:47:39.548Z,4.75
2023-01-01T20:50:06.673Z,5.95
2023-01-01T20:52:38.337Z,7.32
2023-01-01T20:55:07.783Z,10.40
2023-01-01T20:57:34.723Z,5.95
2023-01-01T21:00:06.980Z,4.30
2023-01-01T21:02:33.987Z,5.32
2023-01-01T21:05:04.733Z,7.35
2023-01-01T21:07:31.457Z,10.02
2023-01-01T21:09:58.193Z,8.70
2023-01-01T21:12:24.929Z,7.93
2023-01-01T21:14:54.530Z,9.38
2023-01-01T21:17:24.699Z,8.13
2023-01-01T21:19:55.670Z,6.10
2023-01-01T21:22:24.650Z,5.40
2023-01-01T21:25:10.689Z,4.47
2023-01-01T21:27:45.125Z,4.30
2023-01-01T21:30:13.104Z,4.78
2023-01-01T21:32:47.772Z,3.50
2023-01-01T21:35:30.693Z,2.60
2023-01-01T21:38:16.087Z,3.40
2023-01-01T21:40:59.459Z,6.47
2023-01-01T21:43:32.115Z,10.30
2023-01-01T21:46:07.979Z,8.48
2023-01-01T21:48:49.050Z,6.68
2023-01-01T21:51:33.744Z,5.57
2023-01-01T21:54:14.452Z,6.07
2023-01-01T21:56:53.284Z,3.53
2023-01-01T21:59:44.910Z,3.60
2023-01-01T22:02:14.886Z,3.45
2023-01-01T22:04:44.465Z,4.03
2023-01-01T22:10:36.874Z,3.30
2023-01-01T22:13:15.310Z,3.72
2023-01-01T22:15:42.737Z,3.55
2023-01-01T22:18:12.502Z,2.72
2023-01-01T22:20:44.225Z,3.03
2023-01-01T22:23:20.047Z,2.72
2023-01-01T22:25:47.856Z,2.97
2023-01-01T22:28:21.663Z,3.15
2023-01-01T22:30:53.459Z,2.35
2023-01-01T22:33:49.825Z,2.80
2023-01-01T22:36:26.321Z,3.00
2023-01-01T22:39:00.952Z,2.40
2023-01-01T22:41:28.055Z,3.58
2023-01-01T22:44:04.790Z,4.50
2023-01-01T22:46:39.512Z,4.20
2023-01-01T22:49:19.925Z,3.05
2023-01-01T22:51:50.918Z,4.00
2023-01-01T22:54:20.120Z,3.15
2023-01-01T22:56:49.230Z,3.00
2023-01-01T22:59:16.048Z,3.20
2023-01-01T23:01:42.809Z,3.17
2023-01-01T23:04:12.190Z,3.22
2023-01-01T23:06:43.452Z,3.38
2023-01-01T23:09:11.333Z,2.53
2023-01-01T23:11:38.497Z,3.25
2023-01-01T23:14:23.941Z,2.88
2023-01-01T23:16:50.713Z,3.13
2023-01-01T23:19:17.517Z,2.75
2023-01-01T23:21:44.970Z,3.67
2023-01-01T23:24:18.395Z,3.72
2023-01-01T23:26:46.662Z,3.67
2023-01-01T23:29:14.415Z,3.70
2023-01-01T23:31:44.169Z,3.20
2023-01-01T23:34:14.177Z,3.72
2023-01-01T23:36:42.784Z,3.90
2023-01-01T23:39:09.710Z,3.90
2023-01-01T23:41:38.658Z,3.30
2023-01-01T23:44:05.554Z,3.53
2023-01-01T23:46:36.635Z,3.38
2023-01-01T23:49:10.083Z,3.00
2023-01-01T23:51:39.252Z,2.70
2023-01-01T23:54:08.215Z,3.30
2023-01-01T23:56:37.144Z,2.20
2023-01-01T23:59:04.069Z,2.60
